Strona główna
METAR-TAF:

METAR-TAF

Lotnisko :

Port lotniczy Győr-Pér

Győr, Węgry

Szerokość geograficzna: 47-37-28N, Długość geograficzna: 017-48-49E, wysokość: 129 m

Aktualna obserwacja pogody

Raport powstał 37 minut temu, godzina 19:15 UTC
Wiatr 8 kt od północny zachód
Temperatura 2°C
Wilgotność 80%
Ciśnienie 1004 hPa
Widzialność 10 km lub więcej
Brak chmur poniżej 1500 m i brak chmur cumulonimbus

METAR: LHPR 251915Z AUTO 32008KT CAVOK 02/M01 Q1004

czas: 20:52 (19:52 UTC)

Prognoza

Raport powstał 2 godziny i 37 minut temu, godzina 17:15 UTC
Prognoza ważna od 25 godzina 18 UTC do 26 godzina 03 UTC
Wiatr 7 kt od północno-północny zachód
Widzialność 10 km lub więcej
Brak chmur poniżej 1500 m i brak chmur cumulonimbus
Przejściowo
od 25 godzina 22 UTC do 26 godzina 03 UTC
Widzialność: 5000 m
zamglenie

TAF: LHPR 251715Z 2518/2603 33007KT CAVOK TEMPO 2522/2603 5000 BR NSC

Obserwacja i prognoza pogody dla ponad 4000 lotnisk (raport METAR i TAF).

Dostępne stacje oznaczono żółtymi i czerwonymi punktami na mapie.

Najedź kursorem aby zobaczyć nazwę stacji.

Kliknij aby zobaczyć obserwacje i prognozy pogody.

Aby zmienić mapę: kliknij na zielony przycisk z czarnym krzyżykiem, aby powiększyć; na zielony przycisk z myślnikiem, aby pomniejszyć; na zielone strzałki, aby przejść do map sąsiednich.


METAR-TAF: